Market Weighton, United Kingdom
Current Conditions -  °F | °C
As of 7:50 PM on Friday 24 Oct 2014 (Local Time) from EGXV Reporting Station
Scattered Clouds Scattered Clouds  
Wind Chill: 50°   Ceiling: Unl
Heat Index: 50°   Visibility: 6mi
Dew Point: 45°   Wind: 3mph
Humidity: 82%   Direction: 250°WSW
Pressure: 29.85"   Gusts: NA
Location:  53.86°N, 0.67°W
Report Text: EGXV 241850Z AUTO 25003KT 9999 SCT046/// 10/07 Q1011
Loading
Personal Weather Stations






























Interactive Weather Map
Tropical Storm Tracking
New forecast layout! Learn more

10-Day Weather Forecast

Advertisements
Track Severe Weather on mobile